Summer Bridge, United Kingdom

9:17 AM BST on August 23, 2017 (GMT +0100)
NORTH YORKSIHRE | | Change Station

Elev 434 ft 54.06 °N, 1.69 °W | Updated 9 seconds ago

Overcast
Overcast
61.3 °F
Feels Like 61.3 °F
N
0.0
Wind Variable Wind from South
Gusts 0.0 mph

Today
High -- | Low -- °F
--% Chance of Precip.
Yesterday
High -- | Low -- °F
Precip. -- in
Pressure 29.86 in
Visibility 2.5 miles
Clouds Scattered Clouds 900 ft
Overcast 3000 ft
Dew Point 60 °F
Humidity 95%
Rainfall 0.02 in
Snow Depth Not available.
5:58 AM 8:18 PM
Waxing Crescent, 3% visible
METAR EGXU 230750Z 16005KT 4000 HZ SCT009 OVC030 17/15 Q1011 GRN TEMPO 3000 TSRA FEW006 BKN050CB YLO1
Pressure 29.86 in
Visibility 2.5 miles
Clouds Scattered Clouds 900 ft
Overcast 3000 ft
Dew Point 60 °F
Humidity 95%
Rainfall 0.02 in
Snow Depth Not available.
5:58 AM 8:18 PM
Waxing Crescent, 3% visible
METAR EGXU 230750Z 16005KT 4000 HZ SCT009 OVC030 17/15 Q1011 GRN TEMPO 3000 TSRA FEW006 BKN050CB YLO1

Get Severe Weather Alerts

Thanks for signing up!

Be on the lookout for a verification email in your inbox.

You'll start receiving the daily forecast at 6 AM.

×

10-Day Weather Forecast

×

Almanac

Astronomy

Aug. 23, 2017 Rise Set
Actual Time
Civil Twilight
Nautical Twilight
Astronomical Twilight
Moon
Length of Visible Light
Length of Day
Tomorrow will be .
, % of the Moon is Illuminated

Today's Extremes

Country Highs Country Lows

Community

WunderPhotos

Category 6

Welcome to Category 6. This is the collective home for Weather Underground's featured writeups by Dr. Jeff Masters (right), Bob Henson (left), Chris Burt, and other regular contributors.

Nearby

Air Quality

  Air Quality AQ Index Pollutant
Not available.

Snow Depth

Station Depth Elevation

Earthquake Activity

City Distance Mag. Time & Date
Minimum magnitude displayed is 2.5.

Coastal Water Temperatures

Place Temperature

Stations

Nearby Weather Stations

Station Location Temp. Windchill Dew Point Humidity Wind Precip. Elev Updated Type